sensor_id;sensor_type;location;lat;lon;timestamp;P1;durP1;ratioP1;P2;durP2;ratioP2
51368;SDS011;37459;51.416;5.502;2022-11-21T00:01:56;14.80;;;4.40;;
51368;SDS011;37459;51.416;5.502;2022-11-21T00:04:23;16.75;;;4.18;;
51368;SDS011;37459;51.416;5.502;2022-11-21T00:06:49;14.73;;;4.30;;
51368;SDS011;37459;51.416;5.502;2022-11-21T00:09:16;13.10;;;4.00;;
51368;SDS011;37459;51.416;5.502;2022-11-21T00:11:43;18.98;;;4.15;;
51368;SDS011;37459;51.416;5.502;2022-11-21T00:14:09;14.32;;;4.38;;
51368;SDS011;37459;51.416;5.502;2022-11-21T00:16:37;13.10;;;4.22;;
51368;SDS011;37459;51.416;5.502;2022-11-21T00:19:04;15.95;;;4.35;;
51368;SDS011;37459;51.416;5.502;2022-11-21T00:21:30;18.85;;;4.25;;
51368;SDS011;37459;51.416;5.502;2022-11-21T00:23:57;13.10;;;4.18;;
51368;SDS011;37459;51.416;5.502;2022-11-21T00:26:23;12.05;;;3.55;;
51368;SDS011;37459;51.416;5.502;2022-11-21T00:28:49;18.55;;;3.88;;
51368;SDS011;37459;51.416;5.502;2022-11-21T00:31:17;13.45;;;3.50;;
51368;SDS011;37459;51.416;5.502;2022-11-21T00:33:46;15.70;;;3.90;;
51368;SDS011;37459;51.416;5.502;2022-11-21T00:36:12;18.00;;;4.30;;
51368;SDS011;37459;51.416;5.502;2022-11-21T00:38:39;12.45;;;3.78;;
51368;SDS011;37459;51.416;5.502;2022-11-21T00:41:05;17.38;;;4.68;;
51368;SDS011;37459;51.416;5.502;2022-11-21T00:43:32;22.08;;;4.82;;
51368;SDS011;37459;51.416;5.502;2022-11-21T00:45:58;16.63;;;4.78;;
51368;SDS011;37459;51.416;5.502;2022-11-21T00:48:26;16.55;;;4.75;;
51368;SDS011;37459;51.416;5.502;2022-11-21T00:50:55;14.98;;;4.28;;
51368;SDS011;37459;51.416;5.502;2022-11-21T00:53:21;18.00;;;4.75;;
51368;SDS011;37459;51.416;5.502;2022-11-21T00:55:48;14.48;;;4.05;;
51368;SDS011;37459;51.416;5.502;2022-11-21T00:58:14;15.07;;;4.28;;
51368;SDS011;37459;51.416;5.502;2022-11-21T01:00:41;14.15;;;4.07;;
51368;SDS011;37459;51.416;5.502;2022-11-21T01:03:07;13.25;;;3.92;;
51368;SDS011;37459;51.416;5.502;2022-11-21T01:05:34;14.65;;;4.78;;
51368;SDS011;37459;51.416;5.502;2022-11-21T01:08:02;14.70;;;4.25;;
51368;SDS011;37459;51.416;5.502;2022-11-21T01:10:29;12.48;;;4.97;;
51368;SDS011;37459;51.416;5.502;2022-11-21T01:12:55;15.73;;;5.00;;
51368;SDS011;37459;51.416;5.502;2022-11-21T01:15:22;14.32;;;4.28;;
51368;SDS011;37459;51.416;5.502;2022-11-21T01:17:48;12.02;;;4.10;;
51368;SDS011;37459;51.416;5.502;2022-11-21T01:20:15;16.13;;;4.30;;
51368;SDS011;37459;51.416;5.502;2022-11-21T01:22:41;20.10;;;5.03;;
51368;SDS011;37459;51.416;5.502;2022-11-21T01:25:09;13.13;;;4.60;;
51368;SDS011;37459;51.416;5.502;2022-11-21T01:27:36;14.15;;;4.70;;
51368;SDS011;37459;51.416;5.502;2022-11-21T01:30:02;16.65;;;5.15;;
51368;SDS011;37459;51.416;5.502;2022-11-21T01:32:29;15.05;;;4.90;;
51368;SDS011;37459;51.416;5.502;2022-11-21T01:34:56;19.33;;;5.45;;
51368;SDS011;37459;51.416;5.502;2022-11-21T01:37:22;19.73;;;5.40;;
51368;SDS011;37459;51.416;5.502;2022-11-21T01:39:49;17.75;;;5.13;;
51368;SDS011;37459;51.416;5.502;2022-11-21T01:42:17;17.33;;;4.93;;
51368;SDS011;37459;51.416;5.502;2022-11-21T01:44:48;16.73;;;5.10;;
51368;SDS011;37459;51.416;5.502;2022-11-21T01:47:15;15.27;;;5.55;;
51368;SDS011;37459;51.416;5.502;2022-11-21T01:49:42;14.50;;;5.40;;
51368;SDS011;37459;51.416;5.502;2022-11-21T01:52:11;10.90;;;4.60;;
51368;SDS011;37459;51.416;5.502;2022-11-21T01:54:41;12.90;;;4.70;;
51368;SDS011;37459;51.416;5.502;2022-11-21T01:57:12;14.70;;;4.78;;
51368;SDS011;37459;51.416;5.502;2022-11-21T01:59:44;16.20;;;5.00;;
51368;SDS011;37459;51.416;5.502;2022-11-21T02:02:14;17.67;;;5.25;;
51368;SDS011;37459;51.416;5.502;2022-11-21T02:04:44;15.35;;;4.90;;
51368;SDS011;37459;51.416;5.502;2022-11-21T02:07:11;11.90;;;4.63;;
51368;SDS011;37459;51.416;5.502;2022-11-21T02:09:40;13.60;;;5.00;;
51368;SDS011;37459;51.416;5.502;2022-11-21T02:12:10;14.68;;;4.88;;
51368;SDS011;37459;51.416;5.502;2022-11-21T02:14:44;13.57;;;5.00;;
51368;SDS011;37459;51.416;5.502;2022-11-21T02:17:12;14.27;;;4.65;;
51368;SDS011;37459;51.416;5.502;2022-11-21T02:19:40;11.38;;;4.55;;
51368;SDS011;37459;51.416;5.502;2022-11-21T02:22:10;12.18;;;4.60;;
51368;SDS011;37459;51.416;5.502;2022-11-21T02:24:44;12.38;;;4.60;;
51368;SDS011;37459;51.416;5.502;2022-11-21T02:27:16;13.95;;;4.80;;
51368;SDS011;37459;51.416;5.502;2022-11-21T02:29:42;12.77;;;4.35;;
51368;SDS011;37459;51.416;5.502;2022-11-21T02:32:18;16.45;;;4.75;;
51368;SDS011;37459;51.416;5.502;2022-11-21T02:34:46;13.68;;;4.20;;
51368;SDS011;37459;51.416;5.502;2022-11-21T02:37:12;14.73;;;4.78;;
51368;SDS011;37459;51.416;5.502;2022-11-21T02:39:39;14.00;;;5.15;;
51368;SDS011;37459;51.416;5.502;2022-11-21T02:42:07;18.45;;;4.97;;
51368;SDS011;37459;51.416;5.502;2022-11-21T02:44:44;11.57;;;4.53;;
51368;SDS011;37459;51.416;5.502;2022-11-21T02:47:17;11.07;;;4.22;;
51368;SDS011;37459;51.416;5.502;2022-11-21T02:49:47;9.15;;;4.40;;
51368;SDS011;37459;51.416;5.502;2022-11-21T02:52:19;13.30;;;4.75;;
51368;SDS011;37459;51.416;5.502;2022-11-21T02:54:45;13.02;;;5.10;;
51368;SDS011;37459;51.416;5.502;2022-11-21T02:57:12;16.35;;;5.22;;
51368;SDS011;37459;51.416;5.502;2022-11-21T02:59:38;13.52;;;5.32;;
51368;SDS011;37459;51.416;5.502;2022-11-21T03:02:06;13.65;;;4.90;;
51368;SDS011;37459;51.416;5.502;2022-11-21T03:04:32;11.65;;;5.05;;
51368;SDS011;37459;51.416;5.502;2022-11-21T03:06:59;11.63;;;4.72;;
51368;SDS011;37459;51.416;5.502;2022-11-21T03:09:26;15.95;;;4.88;;
51368;SDS011;37459;51.416;5.502;2022-11-21T03:11:52;14.00;;;5.32;;
51368;SDS011;37459;51.416;5.502;2022-11-21T03:14:18;11.55;;;4.68;;
51368;SDS011;37459;51.416;5.502;2022-11-21T03:16:45;14.90;;;5.50;;
51368;SDS011;37459;51.416;5.502;2022-11-21T03:19:13;15.75;;;5.35;;
51368;SDS011;37459;51.416;5.502;2022-11-21T03:21:39;12.77;;;5.28;;
51368;SDS011;37459;51.416;5.502;2022-11-21T03:24:06;14.68;;;5.55;;
51368;SDS011;37459;51.416;5.502;2022-11-21T03:26:33;12.63;;;4.97;;
51368;SDS011;37459;51.416;5.502;2022-11-21T03:28:59;12.27;;;5.43;;
51368;SDS011;37459;51.416;5.502;2022-11-21T03:31:26;12.63;;;5.60;;
51368;SDS011;37459;51.416;5.502;2022-11-21T03:33:52;13.35;;;5.18;;
51368;SDS011;37459;51.416;5.502;2022-11-21T03:36:20;13.75;;;5.50;;
51368;SDS011;37459;51.416;5.502;2022-11-21T03:38:47;10.63;;;5.70;;
51368;SDS011;37459;51.416;5.502;2022-11-21T03:41:13;10.48;;;5.35;;
51368;SDS011;37459;51.416;5.502;2022-11-21T03:43:55;13.60;;;5.53;;
51368;SDS011;37459;51.416;5.502;2022-11-21T03:46:21;10.07;;;4.93;;
51368;SDS011;37459;51.416;5.502;2022-11-21T03:48:48;12.02;;;4.97;;
51368;SDS011;37459;51.416;5.502;2022-11-21T03:51:15;15.75;;;5.75;;
51368;SDS011;37459;51.416;5.502;2022-11-21T03:53:43;12.18;;;5.43;;
51368;SDS011;37459;51.416;5.502;2022-11-21T03:56:09;12.65;;;5.60;;
51368;SDS011;37459;51.416;5.502;2022-11-21T03:58:36;14.38;;;5.65;;
51368;SDS011;37459;51.416;5.502;2022-11-21T04:01:02;11.48;;;5.50;;
51368;SDS011;37459;51.416;5.502;2022-11-21T04:03:29;13.40;;;5.85;;
51368;SDS011;37459;51.416;5.502;2022-11-21T04:05:56;12.73;;;5.63;;
51368;SDS011;37459;51.416;5.502;2022-11-21T04:08:23;13.90;;;6.22;;
51368;SDS011;37459;51.416;5.502;2022-11-21T04:10:51;10.68;;;5.97;;
51368;SDS011;37459;51.416;5.502;2022-11-21T04:13:19;13.30;;;5.97;;
51368;SDS011;37459;51.416;5.502;2022-11-21T04:15:46;11.35;;;6.00;;
51368;SDS011;37459;51.416;5.502;2022-11-21T04:18:13;12.30;;;6.47;;
51368;SDS011;37459;51.416;5.502;2022-11-21T04:20:39;13.55;;;6.75;;
51368;SDS011;37459;51.416;5.502;2022-11-21T04:23:06;12.25;;;6.03;;
51368;SDS011;37459;51.416;5.502;2022-11-21T04:25:32;13.43;;;6.65;;
51368;SDS011;37459;51.416;5.502;2022-11-21T04:28:01;10.90;;;6.22;;
51368;SDS011;37459;51.416;5.502;2022-11-21T04:30:29;12.10;;;7.00;;
51368;SDS011;37459;51.416;5.502;2022-11-21T04:32:56;16.70;;;7.20;;
51368;SDS011;37459;51.416;5.502;2022-11-21T04:35:22;15.50;;;7.25;;
51368;SDS011;37459;51.416;5.502;2022-11-21T04:37:49;12.43;;;7.13;;
51368;SDS011;37459;51.416;5.502;2022-11-21T04:40:16;15.52;;;8.00;;
51368;SDS011;37459;51.416;5.502;2022-11-21T04:42:44;13.65;;;8.18;;
51368;SDS011;37459;51.416;5.502;2022-11-21T04:45:13;16.52;;;8.30;;
51368;SDS011;37459;51.416;5.502;2022-11-21T04:47:42;15.30;;;7.95;;
51368;SDS011;37459;51.416;5.502;2022-11-21T04:50:10;14.48;;;8.23;;
51368;SDS011;37459;51.416;5.502;2022-11-21T04:52:38;12.55;;;7.97;;
51368;SDS011;37459;51.416;5.502;2022-11-21T04:55:06;13.52;;;8.07;;
51368;SDS011;37459;51.416;5.502;2022-11-21T04:57:33;12.07;;;8.10;;
51368;SDS011;37459;51.416;5.502;2022-11-21T05:00:00;11.38;;;7.97;;
51368;SDS011;37459;51.416;5.502;2022-11-21T05:02:28;13.65;;;8.02;;
51368;SDS011;37459;51.416;5.502;2022-11-21T05:04:55;10.55;;;7.13;;
51368;SDS011;37459;51.416;5.502;2022-11-21T05:07:21;11.25;;;7.47;;
51368;SDS011;37459;51.416;5.502;2022-11-21T05:09:47;12.60;;;7.50;;
51368;SDS011;37459;51.416;5.502;2022-11-21T05:12:14;12.32;;;7.45;;
51368;SDS011;37459;51.416;5.502;2022-11-21T05:14:58;10.13;;;6.57;;
51368;SDS011;37459;51.416;5.502;2022-11-21T05:17:26;12.30;;;6.93;;
51368;SDS011;37459;51.416;5.502;2022-11-21T05:19:54;11.30;;;7.05;;
51368;SDS011;37459;51.416;5.502;2022-11-21T05:22:21;12.68;;;7.38;;
51368;SDS011;37459;51.416;5.502;2022-11-21T05:24:47;12.48;;;6.60;;
51368;SDS011;37459;51.416;5.502;2022-11-21T05:27:14;11.32;;;7.10;;
51368;SDS011;37459;51.416;5.502;2022-11-21T05:29:40;11.55;;;6.93;;
51368;SDS011;37459;51.416;5.502;2022-11-21T05:32:07;11.75;;;7.07;;
51368;SDS011;37459;51.416;5.502;2022-11-21T05:34:33;11.20;;;7.00;;
51368;SDS011;37459;51.416;5.502;2022-11-21T05:37:01;12.52;;;7.13;;
51368;SDS011;37459;51.416;5.502;2022-11-21T05:39:28;17.08;;;6.97;;
51368;SDS011;37459;51.416;5.502;2022-11-21T05:41:55;14.40;;;6.45;;
51368;SDS011;37459;51.416;5.502;2022-11-21T05:44:21;10.73;;;6.45;;
51368;SDS011;37459;51.416;5.502;2022-11-21T05:46:47;15.23;;;6.82;;
51368;SDS011;37459;51.416;5.502;2022-11-21T05:49:13;14.18;;;6.70;;
51368;SDS011;37459;51.416;5.502;2022-11-21T05:51:40;10.68;;;6.47;;
51368;SDS011;37459;51.416;5.502;2022-11-21T05:54:10;16.08;;;7.63;;
51368;SDS011;37459;51.416;5.502;2022-11-21T05:56:38;15.77;;;8.23;;
51368;SDS011;37459;51.416;5.502;2022-11-21T05:59:04;14.32;;;8.68;;
51368;SDS011;37459;51.416;5.502;2022-11-21T06:01:31;16.08;;;8.93;;
51368;SDS011;37459;51.416;5.502;2022-11-21T06:04:15;14.63;;;9.52;;
51368;SDS011;37459;51.416;5.502;2022-11-21T06:06:43;16.85;;;9.43;;
51368;SDS011;37459;51.416;5.502;2022-11-21T06:09:10;15.23;;;9.93;;
51368;SDS011;37459;51.416;5.502;2022-11-21T06:11:37;18.85;;;10.70;;
51368;SDS011;37459;51.416;5.502;2022-11-21T06:14:03;16.40;;;10.60;;
51368;SDS011;37459;51.416;5.502;2022-11-21T06:16:30;17.60;;;11.45;;
51368;SDS011;37459;51.416;5.502;2022-11-21T06:18:57;19.88;;;11.95;;
51368;SDS011;37459;51.416;5.502;2022-11-21T06:21:24;23.23;;;14.30;;
51368;SDS011;37459;51.416;5.502;2022-11-21T06:23:52;17.77;;;13.32;;
51368;SDS011;37459;51.416;5.502;2022-11-21T06:26:22;24.10;;;13.48;;
51368;SDS011;37459;51.416;5.502;2022-11-21T06:28:49;22.35;;;13.20;;
51368;SDS011;37459;51.416;5.502;2022-11-21T06:31:17;22.67;;;13.63;;
51368;SDS011;37459;51.416;5.502;2022-11-21T06:33:45;20.45;;;13.88;;
51368;SDS011;37459;51.416;5.502;2022-11-21T06:36:13;21.83;;;13.52;;
51368;SDS011;37459;51.416;5.502;2022-11-21T06:38:40;20.05;;;13.05;;
51368;SDS011;37459;51.416;5.502;2022-11-21T06:41:09;24.02;;;14.13;;
51368;SDS011;37459;51.416;5.502;2022-11-21T06:43:38;22.05;;;13.95;;
51368;SDS011;37459;51.416;5.502;2022-11-21T06:46:05;22.75;;;13.52;;
51368;SDS011;37459;51.416;5.502;2022-11-21T06:48:32;22.80;;;13.70;;
51368;SDS011;37459;51.416;5.502;2022-11-21T06:51:02;20.00;;;13.68;;
51368;SDS011;37459;51.416;5.502;2022-11-21T06:53:29;20.50;;;12.82;;
51368;SDS011;37459;51.416;5.502;2022-11-21T06:55:57;22.80;;;14.85;;
51368;SDS011;37459;51.416;5.502;2022-11-21T06:58:23;25.60;;;18.08;;
51368;SDS011;37459;51.416;5.502;2022-11-21T07:00:51;22.40;;;14.68;;
51368;SDS011;37459;51.416;5.502;2022-11-21T07:03:18;21.30;;;13.43;;
51368;SDS011;37459;51.416;5.502;2022-11-21T07:05:45;20.05;;;13.23;;
51368;SDS011;37459;51.416;5.502;2022-11-21T07:08:11;22.35;;;11.93;;
51368;SDS011;37459;51.416;5.502;2022-11-21T07:10:38;22.25;;;12.30;;
51368;SDS011;37459;51.416;5.502;2022-11-21T07:13:05;20.30;;;11.27;;
51368;SDS011;37459;51.416;5.502;2022-11-21T07:15:48;44.05;;;27.83;;
51368;SDS011;37459;51.416;5.502;2022-11-21T07:18:17;29.98;;;18.80;;
51368;SDS011;37459;51.416;5.502;2022-11-21T07:20:44;25.95;;;14.85;;
51368;SDS011;37459;51.416;5.502;2022-11-21T07:23:11;20.98;;;11.57;;
51368;SDS011;37459;51.416;5.502;2022-11-21T07:25:37;21.90;;;11.85;;
51368;SDS011;37459;51.416;5.502;2022-11-21T07:28:05;15.48;;;10.52;;
51368;SDS011;37459;51.416;5.502;2022-11-21T07:30:33;18.73;;;10.15;;
51368;SDS011;37459;51.416;5.502;2022-11-21T07:33:01;15.73;;;9.40;;
51368;SDS011;37459;51.416;5.502;2022-11-21T07:35:31;18.98;;;10.77;;
51368;SDS011;37459;51.416;5.502;2022-11-21T07:37:58;17.08;;;9.57;;
51368;SDS011;37459;51.416;5.502;2022-11-21T07:40:25;15.48;;;9.02;;
51368;SDS011;37459;51.416;5.502;2022-11-21T07:42:51;15.85;;;8.95;;
51368;SDS011;37459;51.416;5.502;2022-11-21T07:45:18;15.90;;;9.30;;
51368;SDS011;37459;51.416;5.502;2022-11-21T07:47:45;19.13;;;9.35;;
51368;SDS011;37459;51.416;5.502;2022-11-21T07:50:11;17.70;;;9.05;;
51368;SDS011;37459;51.416;5.502;2022-11-21T07:52:39;16.90;;;10.30;;
51368;SDS011;37459;51.416;5.502;2022-11-21T07:55:06;17.13;;;10.63;;
51368;SDS011;37459;51.416;5.502;2022-11-21T07:57:33;18.13;;;9.38;;
51368;SDS011;37459;51.416;5.502;2022-11-21T08:00:00;15.82;;;8.65;;
51368;SDS011;37459;51.416;5.502;2022-11-21T08:02:27;15.95;;;9.05;;
51368;SDS011;37459;51.416;5.502;2022-11-21T08:04:53;13.18;;;8.45;;
51368;SDS011;37459;51.416;5.502;2022-11-21T08:07:21;13.93;;;8.43;;
51368;SDS011;37459;51.416;5.502;2022-11-21T08:09:49;14.25;;;8.00;;
51368;SDS011;37459;51.416;5.502;2022-11-21T08:12:16;13.13;;;8.63;;
51368;SDS011;37459;51.416;5.502;2022-11-21T08:14:42;16.88;;;8.70;;
51368;SDS011;37459;51.416;5.502;2022-11-21T08:17:09;16.27;;;8.00;;
51368;SDS011;37459;51.416;5.502;2022-11-21T08:19:35;16.42;;;8.98;;
51368;SDS011;37459;51.416;5.502;2022-11-21T08:22:02;18.90;;;8.80;;
51368;SDS011;37459;51.416;5.502;2022-11-21T08:24:28;16.67;;;9.20;;
51368;SDS011;37459;51.416;5.502;2022-11-21T08:26:58;17.50;;;8.98;;
51368;SDS011;37459;51.416;5.502;2022-11-21T08:29:25;20.65;;;11.63;;
51368;SDS011;37459;51.416;5.502;2022-11-21T08:31:51;17.85;;;8.80;;
51368;SDS011;37459;51.416;5.502;2022-11-21T08:34:18;16.02;;;8.40;;
51368;SDS011;37459;51.416;5.502;2022-11-21T08:36:44;14.93;;;7.57;;
51368;SDS011;37459;51.416;5.502;2022-11-21T08:39:11;15.10;;;7.65;;
51368;SDS011;37459;51.416;5.502;2022-11-21T08:41:37;13.75;;;8.02;;
51368;SDS011;37459;51.416;5.502;2022-11-21T08:44:23;13.30;;;7.72;;
51368;SDS011;37459;51.416;5.502;2022-11-21T08:46:49;11.80;;;6.70;;
51368;SDS011;37459;51.416;5.502;2022-11-21T08:49:16;15.15;;;7.60;;
51368;SDS011;37459;51.416;5.502;2022-11-21T08:51:42;13.65;;;6.60;;
51368;SDS011;37459;51.416;5.502;2022-11-21T08:54:09;11.05;;;6.43;;
51368;SDS011;37459;51.416;5.502;2022-11-21T08:56:36;14.75;;;6.20;;
51368;SDS011;37459;51.416;5.502;2022-11-21T08:59:02;12.25;;;6.65;;
51368;SDS011;37459;51.416;5.502;2022-11-21T09:01:30;14.57;;;6.30;;
51368;SDS011;37459;51.416;5.502;2022-11-21T09:03:58;13.50;;;6.00;;
51368;SDS011;37459;51.416;5.502;2022-11-21T09:06:24;14.00;;;6.40;;
51368;SDS011;37459;51.416;5.502;2022-11-21T09:08:51;15.00;;;6.85;;
51368;SDS011;37459;51.416;5.502;2022-11-21T09:11:18;11.35;;;6.60;;
51368;SDS011;37459;51.416;5.502;2022-11-21T09:13:44;15.90;;;6.97;;
51368;SDS011;37459;51.416;5.502;2022-11-21T09:16:33;11.05;;;6.60;;
51368;SDS011;37459;51.416;5.502;2022-11-21T09:19:17;11.73;;;6.73;;
51368;SDS011;37459;51.416;5.502;2022-11-21T09:21:44;14.23;;;6.88;;
51368;SDS011;37459;51.416;5.502;2022-11-21T09:24:11;15.70;;;7.03;;
51368;SDS011;37459;51.416;5.502;2022-11-21T09:26:38;15.95;;;6.75;;
51368;SDS011;37459;51.416;5.502;2022-11-21T09:29:04;17.45;;;7.25;;
51368;SDS011;37459;51.416;5.502;2022-11-21T09:31:31;14.23;;;6.97;;
51368;SDS011;37459;51.416;5.502;2022-11-21T09:33:59;24.63;;;14.77;;
51368;SDS011;37459;51.416;5.502;2022-11-21T09:36:25;18.27;;;10.25;;
51368;SDS011;37459;51.416;5.502;2022-11-21T09:38:52;16.30;;;8.10;;
51368;SDS011;37459;51.416;5.502;2022-11-21T09:41:21;15.75;;;8.45;;
51368;SDS011;37459;51.416;5.502;2022-11-21T09:44:12;18.88;;;8.10;;
51368;SDS011;37459;51.416;5.502;2022-11-21T09:46:48;15.43;;;7.80;;
51368;SDS011;37459;51.416;5.502;2022-11-21T09:49:22;15.95;;;6.82;;
51368;SDS011;37459;51.416;5.502;2022-11-21T09:51:50;17.90;;;7.45;;
51368;SDS011;37459;51.416;5.502;2022-11-21T09:54:19;13.98;;;7.15;;
51368;SDS011;37459;51.416;5.502;2022-11-21T09:56:50;16.92;;;6.50;;
51368;SDS011;37459;51.416;5.502;2022-11-21T09:59:24;14.98;;;6.53;;
51368;SDS011;37459;51.416;5.502;2022-11-21T10:01:57;15.15;;;6.80;;
51368;SDS011;37459;51.416;5.502;2022-11-21T10:04:25;11.57;;;6.72;;
51368;SDS011;37459;51.416;5.502;2022-11-21T10:06:55;14.35;;;6.50;;
51368;SDS011;37459;51.416;5.502;2022-11-21T10:09:30;14.68;;;6.15;;
51368;SDS011;37459;51.416;5.502;2022-11-21T10:12:10;12.95;;;5.78;;
51368;SDS011;37459;51.416;5.502;2022-11-21T10:15:03;12.75;;;5.72;;
51368;SDS011;37459;51.416;5.502;2022-11-21T10:17:43;12.05;;;5.47;;
51368;SDS011;37459;51.416;5.502;2022-11-21T10:20:24;11.57;;;5.18;;
51368;SDS011;37459;51.416;5.502;2022-11-21T10:23:05;13.70;;;4.75;;
51368;SDS011;37459;51.416;5.502;2022-11-21T10:25:49;14.00;;;4.70;;
51368;SDS011;37459;51.416;5.502;2022-11-21T10:28:21;12.90;;;4.20;;
51368;SDS011;37459;51.416;5.502;2022-11-21T10:30:53;13.30;;;4.55;;
51368;SDS011;37459;51.416;5.502;2022-11-21T10:33:25;11.73;;;3.83;;
51368;SDS011;37459;51.416;5.502;2022-11-21T10:35:58;10.30;;;3.40;;
51368;SDS011;37459;51.416;5.502;2022-11-21T10:38:33;8.15;;;3.42;;
51368;SDS011;37459;51.416;5.502;2022-11-21T10:41:04;11.75;;;3.90;;
51368;SDS011;37459;51.416;5.502;2022-11-21T10:46:25;10.95;;;3.13;;
51368;SDS011;37459;51.416;5.502;2022-11-21T10:48:54;11.15;;;3.50;;
51368;SDS011;37459;51.416;5.502;2022-11-21T10:51:26;10.55;;;3.08;;
51368;SDS011;37459;51.416;5.502;2022-11-21T10:54:03;9.73;;;3.00;;
51368;SDS011;37459;51.416;5.502;2022-11-21T10:56:49;7.75;;;2.88;;
51368;SDS011;37459;51.416;5.502;2022-11-21T10:59:24;10.65;;;3.20;;
51368;SDS011;37459;51.416;5.502;2022-11-21T11:01:56;10.43;;;3.00;;
51368;SDS011;37459;51.416;5.502;2022-11-21T11:04:23;9.32;;;3.17;;
51368;SDS011;37459;51.416;5.502;2022-11-21T11:06:53;11.93;;;3.05;;
51368;SDS011;37459;51.416;5.502;2022-11-21T11:09:24;11.70;;;3.58;;
51368;SDS011;37459;51.416;5.502;2022-11-21T11:12:15;9.38;;;3.30;;
51368;SDS011;37459;51.416;5.502;2022-11-21T11:14:51;9.55;;;3.05;;
51368;SDS011;37459;51.416;5.502;2022-11-21T11:17:26;11.43;;;3.30;;
51368;SDS011;37459;51.416;5.502;2022-11-21T11:19:58;7.43;;;2.67;;
51368;SDS011;37459;51.416;5.502;2022-11-21T11:22:27;7.75;;;3.05;;
51368;SDS011;37459;51.416;5.502;2022-11-21T11:24:55;9.73;;;2.78;;
51368;SDS011;37459;51.416;5.502;2022-11-21T11:27:25;9.00;;;2.75;;
51368;SDS011;37459;51.416;5.502;2022-11-21T11:29:57;11.10;;;2.85;;
51368;SDS011;37459;51.416;5.502;2022-11-21T11:32:31;9.15;;;2.97;;
51368;SDS011;37459;51.416;5.502;2022-11-21T11:34:58;7.53;;;2.75;;
51368;SDS011;37459;51.416;5.502;2022-11-21T11:37:31;11.77;;;2.92;;
51368;SDS011;37459;51.416;5.502;2022-11-21T11:40:04;8.50;;;2.90;;
51368;SDS011;37459;51.416;5.502;2022-11-21T11:45:50;8.57;;;2.60;;
51368;SDS011;37459;51.416;5.502;2022-11-21T11:48:51;7.45;;;2.40;;
51368;SDS011;37459;51.416;5.502;2022-11-21T11:51:20;7.78;;;2.70;;
51368;SDS011;37459;51.416;5.502;2022-11-21T11:53:52;8.77;;;2.78;;
51368;SDS011;37459;51.416;5.502;2022-11-21T11:56:25;9.48;;;2.60;;
51368;SDS011;37459;51.416;5.502;2022-11-21T11:58:56;10.25;;;2.60;;
51368;SDS011;37459;51.416;5.502;2022-11-21T12:01:30;8.50;;;2.33;;
51368;SDS011;37459;51.416;5.502;2022-11-21T12:04:01;9.35;;;2.33;;
51368;SDS011;37459;51.416;5.502;2022-11-21T12:06:32;9.98;;;3.72;;
51368;SDS011;37459;51.416;5.502;2022-11-21T12:09:06;26.33;;;11.00;;
51368;SDS011;37459;51.416;5.502;2022-11-21T12:11:45;13.20;;;4.97;;
51368;SDS011;37459;51.416;5.502;2022-11-21T12:14:43;8.23;;;3.35;;
51368;SDS011;37459;51.416;5.502;2022-11-21T12:17:46;9.13;;;2.78;;
51368;SDS011;37459;51.416;5.502;2022-11-21T12:20:19;7.38;;;2.60;;
51368;SDS011;37459;51.416;5.502;2022-11-21T12:22:48;11.82;;;2.65;;
51368;SDS011;37459;51.416;5.502;2022-11-21T12:25:17;7.00;;;2.55;;
51368;SDS011;37459;51.416;5.502;2022-11-21T12:27:47;5.82;;;2.10;;
51368;SDS011;37459;51.416;5.502;2022-11-21T12:30:39;8.07;;;1.85;;
51368;SDS011;37459;51.416;5.502;2022-11-21T12:33:18;6.60;;;1.88;;
51368;SDS011;37459;51.416;5.502;2022-11-21T12:35:55;18.60;;;6.13;;
51368;SDS011;37459;51.416;5.502;2022-11-21T12:38:41;7.13;;;2.63;;
51368;SDS011;37459;51.416;5.502;2022-11-21T12:41:20;7.50;;;2.47;;
51368;SDS011;37459;51.416;5.502;2022-11-21T12:44:16;7.43;;;2.55;;
51368;SDS011;37459;51.416;5.502;2022-11-21T12:46:57;5.65;;;2.10;;
51368;SDS011;37459;51.416;5.502;2022-11-21T12:49:32;6.43;;;2.03;;
51368;SDS011;37459;51.416;5.502;2022-11-21T12:52:22;6.95;;;1.90;;
51368;SDS011;37459;51.416;5.502;2022-11-21T12:55:17;6.63;;;2.20;;
51368;SDS011;37459;51.416;5.502;2022-11-21T12:58:01;7.75;;;2.10;;
51368;SDS011;37459;51.416;5.502;2022-11-21T13:00:36;7.63;;;1.90;;
51368;SDS011;37459;51.416;5.502;2022-11-21T13:06:05;7.90;;;2.35;;
51368;SDS011;37459;51.416;5.502;2022-11-21T13:08:39;6.20;;;2.60;;
51368;SDS011;37459;51.416;5.502;2022-11-21T13:11:09;8.90;;;2.40;;
51368;SDS011;37459;51.416;5.502;2022-11-21T13:14:01;8.27;;;1.90;;
51368;SDS011;37459;51.416;5.502;2022-11-21T13:16:32;8.05;;;2.35;;
51368;SDS011;37459;51.416;5.502;2022-11-21T13:19:09;8.32;;;2.63;;
51368;SDS011;37459;51.416;5.502;2022-11-21T13:21:42;8.27;;;2.50;;
51368;SDS011;37459;51.416;5.502;2022-11-21T13:24:12;15.77;;;7.20;;
51368;SDS011;37459;51.416;5.502;2022-11-21T13:27:23;13.95;;;5.40;;
51368;SDS011;37459;51.416;5.502;2022-11-21T13:32:44;7.63;;;2.90;;
51368;SDS011;37459;51.416;5.502;2022-11-21T13:38:12;6.22;;;2.60;;
51368;SDS011;37459;51.416;5.502;2022-11-21T13:40:39;9.18;;;2.55;;
51368;SDS011;37459;51.416;5.502;2022-11-21T13:43:27;7.95;;;2.55;;
51368;SDS011;37459;51.416;5.502;2022-11-21T13:45:52;8.90;;;2.60;;
51368;SDS011;37459;51.416;5.502;2022-11-21T13:48:42;8.90;;;2.60;;
51368;SDS011;37459;51.416;5.502;2022-11-21T13:51:36;8.52;;;2.22;;
51368;SDS011;37459;51.416;5.502;2022-11-21T13:57:44;8.02;;;2.47;;
51368;SDS011;37459;51.416;5.502;2022-11-21T14:00:30;12.77;;;4.80;;
51368;SDS011;37459;51.416;5.502;2022-11-21T14:03:16;8.52;;;3.03;;
51368;SDS011;37459;51.416;5.502;2022-11-21T14:06:13;8.43;;;2.50;;
51368;SDS011;37459;51.416;5.502;2022-11-21T14:09:03;11.23;;;2.65;;
51368;SDS011;37459;51.416;5.502;2022-11-21T14:11:43;9.85;;;2.45;;
51368;SDS011;37459;51.416;5.502;2022-11-21T14:14:22;6.32;;;2.17;;
51368;SDS011;37459;51.416;5.502;2022-11-21T14:16:50;9.32;;;2.40;;
51368;SDS011;37459;51.416;5.502;2022-11-21T14:19:23;10.07;;;2.70;;
51368;SDS011;37459;51.416;5.502;2022-11-21T14:21:53;8.43;;;2.60;;
51368;SDS011;37459;51.416;5.502;2022-11-21T14:24:20;6.53;;;2.90;;
51368;SDS011;37459;51.416;5.502;2022-11-21T14:26:48;13.95;;;3.00;;
51368;SDS011;37459;51.416;5.502;2022-11-21T14:29:16;12.07;;;3.20;;
51368;SDS011;37459;51.416;5.502;2022-11-21T14:31:46;10.00;;;2.45;;
51368;SDS011;37459;51.416;5.502;2022-11-21T14:34:22;8.02;;;2.63;;
51368;SDS011;37459;51.416;5.502;2022-11-21T14:36:49;10.15;;;2.40;;
51368;SDS011;37459;51.416;5.502;2022-11-21T14:39:17;9.85;;;2.90;;
51368;SDS011;37459;51.416;5.502;2022-11-21T14:41:48;8.50;;;2.80;;
51368;SDS011;37459;51.416;5.502;2022-11-21T14:44:18;11.63;;;3.40;;
51368;SDS011;37459;51.416;5.502;2022-11-21T14:46:46;10.43;;;2.70;;
51368;SDS011;37459;51.416;5.502;2022-11-21T14:49:18;8.85;;;2.83;;
51368;SDS011;37459;51.416;5.502;2022-11-21T14:51:59;9.98;;;3.10;;
51368;SDS011;37459;51.416;5.502;2022-11-21T14:54:31;7.25;;;2.65;;
51368;SDS011;37459;51.416;5.502;2022-11-21T14:57:00;9.77;;;2.83;;
51368;SDS011;37459;51.416;5.502;2022-11-21T14:59:32;9.77;;;2.75;;
51368;SDS011;37459;51.416;5.502;2022-11-21T15:02:06;31.48;;;15.30;;
51368;SDS011;37459;51.416;5.502;2022-11-21T15:04:37;18.88;;;7.90;;
51368;SDS011;37459;51.416;5.502;2022-11-21T15:07:03;11.20;;;4.38;;
51368;SDS011;37459;51.416;5.502;2022-11-21T15:09:31;8.23;;;3.50;;
51368;SDS011;37459;51.416;5.502;2022-11-21T15:11:59;10.75;;;3.25;;
51368;SDS011;37459;51.416;5.502;2022-11-21T15:14:29;10.60;;;3.45;;